createdAt,value
2023-03-28T00:00:09.379Z,74.22
2023-03-28T00:02:58.061Z,74.27
2023-03-28T00:05:27.509Z,74.48
2023-03-28T00:07:56.670Z,74.63
2023-03-28T00:10:25.929Z,74.82
2023-03-28T00:12:54.789Z,75.08
2023-03-28T00:15:23.133Z,75.25
2023-03-28T00:17:52.061Z,75.57
2023-03-28T00:20:21.147Z,75.71
2023-03-28T00:22:50.246Z,76.03
2023-03-28T00:25:20.361Z,75.90
2023-03-28T00:27:49.440Z,76.14
2023-03-28T00:30:18.048Z,75.94
2023-03-28T00:32:48.008Z,76.10
2023-03-28T00:35:17.015Z,76.30
2023-03-28T00:37:45.648Z,76.21
2023-03-28T00:40:14.217Z,75.88
2023-03-28T00:42:43.124Z,76.07
2023-03-28T00:45:13.273Z,75.95
2023-03-28T00:47:44.496Z,76.04
2023-03-28T00:50:20.156Z,75.97
2023-03-28T00:52:51.937Z,75.53
2023-03-28T00:55:24.815Z,75.68
2023-03-28T00:57:55.353Z,75.41
2023-03-28T01:00:27.230Z,75.01
2023-03-28T01:02:57.859Z,74.82
2023-03-28T01:05:32.746Z,74.56
2023-03-28T01:08:03.819Z,74.41
2023-03-28T01:10:33.595Z,74.21
2023-03-28T01:13:03.740Z,74.24
2023-03-28T01:15:33.925Z,74.13
2023-03-28T01:18:10.833Z,74.05
2023-03-28T01:20:51.753Z,74.09
2023-03-28T01:23:40.406Z,74.12
2023-03-28T01:26:37.366Z,74.17
2023-03-28T01:29:24.341Z,74.22
2023-03-28T01:32:07.458Z,74.16
2023-03-28T01:34:44.461Z,74.39
2023-03-28T01:37:23.307Z,74.35
2023-03-28T01:40:07.505Z,74.72
2023-03-28T01:42:43.915Z,74.70
2023-03-28T01:45:17.472Z,74.17
2023-03-28T01:47:52.518Z,73.82
2023-03-28T01:50:26.229Z,73.87
2023-03-28T01:52:57.997Z,73.81
2023-03-28T01:55:31.336Z,73.59
2023-03-28T01:58:03.973Z,73.58
2023-03-28T02:00:34.167Z,73.51
2023-03-28T02:03:08.320Z,73.41
2023-03-28T02:05:39.818Z,73.09
2023-03-28T02:08:11.821Z,73.14
2023-03-28T02:10:41.824Z,72.79
2023-03-28T02:13:12.872Z,72.77
2023-03-28T02:15:42.778Z,72.39
2023-03-28T02:18:16.188Z,72.13
2023-03-28T02:20:47.872Z,71.99
2023-03-28T02:23:22.172Z,71.81
2023-03-28T02:25:51.111Z,71.47
2023-03-28T02:28:26.731Z,71.42
2023-03-28T02:30:55.733Z,71.16
2023-03-28T02:33:33.525Z,71.04
2023-03-28T02:36:07.435Z,70.45
2023-03-28T02:38:40.705Z,70.22
2023-03-28T02:41:14.300Z,69.82
2023-03-28T02:43:51.174Z,69.46
2023-03-28T02:46:29.218Z,69.76
2023-03-28T02:49:23.709Z,69.64
2023-03-28T02:51:56.456Z,69.30
2023-03-28T02:54:30.625Z,69.42
2023-03-28T02:57:10.650Z,69.51
2023-03-28T02:59:41.661Z,69.32
2023-03-28T03:02:12.534Z,68.93
2023-03-28T03:04:41.591Z,68.79
2023-03-28T03:07:10.696Z,68.52
2023-03-28T03:09:40.709Z,68.49
2023-03-28T03:12:09.392Z,68.30
2023-03-28T03:14:40.193Z,67.96
2023-03-28T03:17:11.376Z,67.78
2023-03-28T03:19:42.172Z,67.91
2023-03-28T03:22:21.259Z,67.35
2023-03-28T03:24:50.582Z,67.28
2023-03-28T03:27:19.412Z,67.34
2023-03-28T03:29:48.163Z,66.97
2023-03-28T03:32:16.654Z,67.06
2023-03-28T03:34:45.243Z,66.84
2023-03-28T03:37:17.333Z,66.55
2023-03-28T03:39:45.881Z,66.50
2023-03-28T03:42:14.461Z,66.63
2023-03-28T03:44:43.800Z,66.61
2023-03-28T03:47:13.445Z,66.09
2023-03-28T03:49:42.602Z,65.97
2023-03-28T03:52:10.895Z,66.19
2023-03-28T03:54:40.598Z,65.78
2023-03-28T04:03:51.412Z,65.08
2023-03-28T04:06:19.837Z,65.03
2023-03-28T04:08:48.302Z,65.37
2023-03-28T04:11:17.041Z,64.91
2023-03-28T04:13:45.675Z,64.68
2023-03-28T04:16:15.014Z,64.50
2023-03-28T04:18:50.059Z,63.77
2023-03-28T04:21:19.421Z,64.07
2023-03-28T04:23:48.264Z,63.85
2023-03-28T04:26:20.083Z,63.73
2023-03-28T04:28:48.498Z,63.39
2023-03-28T04:31:16.834Z,63.17
2023-03-28T04:33:45.760Z,62.98
2023-03-28T04:36:16.288Z,62.44
2023-03-28T04:38:45.599Z,62.21
2023-03-28T04:41:16.506Z,62.05
2023-03-28T04:43:45.705Z,61.80
2023-03-28T04:46:14.062Z,62.07
2023-03-28T04:48:43.285Z,61.53
2023-03-28T04:51:11.697Z,61.39
2023-03-28T04:53:40.165Z,61.21
2023-03-28T04:56:13.757Z,61.20
2023-03-28T04:58:43.321Z,61.55
2023-03-28T05:01:11.477Z,61.04
2023-03-28T05:03:39.875Z,61.04
2023-03-28T05:06:08.540Z,61.23
2023-03-28T05:08:36.818Z,61.30
2023-03-28T05:11:05.352Z,61.17
2023-03-28T05:13:34.343Z,61.16
2023-03-28T05:16:03.186Z,61.37
2023-03-28T05:18:31.630Z,61.13
2023-03-28T05:21:01.144Z,61.11
2023-03-28T05:23:29.519Z,61.57
2023-03-28T05:25:58.347Z,61.39
2023-03-28T05:28:26.845Z,61.19
2023-03-28T05:30:55.200Z,61.07
2023-03-28T05:33:23.858Z,61.10
2023-03-28T05:35:53.168Z,61.01
2023-03-28T05:38:21.793Z,60.72
2023-03-28T05:40:50.174Z,61.02
2023-03-28T05:43:19.623Z,61.10
2023-03-28T05:45:48.796Z,61.02
2023-03-28T05:48:18.713Z,61.27
2023-03-28T05:50:49.863Z,60.80
2023-03-28T05:53:20.174Z,60.86
2023-03-28T05:55:49.527Z,60.75
2023-03-28T05:58:20.004Z,60.74
2023-03-28T06:00:49.114Z,60.76
2023-03-28T06:03:19.053Z,60.46
2023-03-28T06:05:47.427Z,60.68
2023-03-28T06:08:16.730Z,60.23
2023-03-28T06:10:46.605Z,60.37
2023-03-28T06:13:26.660Z,60.02
2023-03-28T06:15:55.538Z,60.22
2023-03-28T06:18:24.981Z,60.10
2023-03-28T06:20:53.528Z,59.58
2023-03-28T06:23:22.110Z,59.66
2023-03-28T06:25:53.855Z,59.93
2023-03-28T06:28:22.419Z,60.35
2023-03-28T06:30:51.061Z,60.87
2023-03-28T06:33:20.269Z,60.59
2023-03-28T06:35:49.567Z,60.25
2023-03-28T06:38:19.616Z,60.76
2023-03-28T06:40:48.862Z,60.91
2023-03-28T06:43:17.351Z,61.43
2023-03-28T06:45:49.547Z,61.52
2023-03-28T06:48:18.260Z,62.29
2023-03-28T06:50:50.332Z,62.61
2023-03-28T06:53:20.145Z,62.94
2023-03-28T06:55:51.271Z,62.86
2023-03-28T06:58:21.344Z,62.89
2023-03-28T07:00:52.468Z,62.80
2023-03-28T07:03:21.839Z,62.97
2023-03-28T07:05:52.250Z,63.41
2023-03-28T07:08:21.860Z,63.72
2023-03-28T07:10:51.387Z,63.71
2023-03-28T07:13:21.671Z,63.59
2023-03-28T07:15:59.872Z,63.42
2023-03-28T07:18:28.318Z,63.19
2023-03-28T07:21:04.089Z,62.02
2023-03-28T07:23:33.473Z,60.13
2023-03-28T07:26:02.468Z,57.12
2023-03-28T07:28:30.948Z,58.41
2023-03-28T07:31:01.327Z,58.68
2023-03-28T07:33:35.851Z,58.75
2023-03-28T07:36:10.098Z,58.67
2023-03-28T07:38:38.722Z,59.63
2023-03-28T07:41:07.559Z,59.79
2023-03-28T07:43:37.499Z,59.53
2023-03-28T07:46:07.557Z,60.16
2023-03-28T07:48:36.988Z,60.28
2023-03-28T07:51:07.251Z,60.70
2023-03-28T07:53:36.948Z,60.81
2023-03-28T07:56:10.040Z,60.73
2023-03-28T07:58:39.221Z,60.97
2023-03-28T08:01:08.543Z,61.39
2023-03-28T08:03:37.824Z,61.60
2023-03-28T08:06:20.030Z,61.20
2023-03-28T08:08:57.422Z,61.52
2023-03-28T08:11:26.940Z,61.10
2023-03-28T08:13:55.337Z,61.47
2023-03-28T08:16:23.697Z,61.45
2023-03-28T08:19:00.290Z,61.47
2023-03-28T08:21:38.810Z,61.06
2023-03-28T08:24:09.207Z,60.68
2023-03-28T08:26:37.704Z,60.21
2023-03-28T08:29:06.447Z,60.62
2023-03-28T08:31:34.981Z,60.98
2023-03-28T08:34:03.297Z,61.18
2023-03-28T08:36:32.211Z,61.25
2023-03-28T08:39:03.793Z,61.19
2023-03-28T08:41:44.027Z,60.91
2023-03-28T08:44:21.720Z,60.46
2023-03-28T08:46:54.852Z,60.72
2023-03-28T08:49:24.111Z,59.97
2023-03-28T08:51:56.821Z,59.96
2023-03-28T08:54:29.295Z,59.95
2023-03-28T08:57:00.614Z,59.85
2023-03-28T08:59:33.287Z,59.62
2023-03-28T09:02:02.578Z,59.05
2023-03-28T09:04:34.932Z,58.75
2023-03-28T09:07:08.256Z,58.69
2023-03-28T09:09:42.155Z,59.00
2023-03-28T09:12:21.073Z,59.21
2023-03-28T09:14:57.318Z,59.06
2023-03-28T09:17:33.926Z,59.14
2023-03-28T09:20:11.828Z,58.83
2023-03-28T09:22:44.381Z,58.66
2023-03-28T09:25:21.826Z,58.57
2023-03-28T09:27:55.899Z,58.47
2023-03-28T09:30:27.545Z,58.57
2023-03-28T09:32:58.682Z,58.37
2023-03-28T09:35:28.813Z,57.93
2023-03-28T09:38:01.217Z,57.94
2023-03-28T09:40:30.876Z,58.02
2023-03-28T09:43:04.549Z,57.66
2023-03-28T09:45:40.733Z,57.48
2023-03-28T09:48:13.699Z,57.48
2023-03-28T09:50:42.588Z,57.03
2023-03-28T09:53:18.404Z,56.94
2023-03-28T09:55:58.086Z,56.76
2023-03-28T09:58:46.735Z,56.33
2023-03-28T10:01:24.618Z,55.70
2023-03-28T10:03:54.001Z,55.41
2023-03-28T10:06:26.052Z,55.45
2023-03-28T10:09:08.558Z,55.56
2023-03-28T10:11:45.458Z,55.29
2023-03-28T10:14:29.410Z,55.90
2023-03-28T10:16:58.325Z,55.47
2023-03-28T10:19:31.257Z,54.83
2023-03-28T10:22:01.014Z,55.35
2023-03-28T10:24:32.349Z,55.44
2023-03-28T10:27:06.855Z,55.59
2023-03-28T10:29:37.278Z,55.54
2023-03-28T10:32:05.920Z,55.84
2023-03-28T10:34:34.294Z,55.82
2023-03-28T10:37:02.879Z,55.71
2023-03-28T10:39:32.681Z,55.41
2023-03-28T10:42:01.733Z,55.20
2023-03-28T10:44:32.640Z,54.83
2023-03-28T10:47:02.371Z,55.05
2023-03-28T10:49:38.180Z,55.31
2023-03-28T10:52:11.687Z,55.15
2023-03-28T10:54:51.971Z,54.88
2023-03-28T10:57:26.331Z,54.73
2023-03-28T10:59:57.949Z,54.30
2023-03-28T11:02:36.458Z,53.89
2023-03-28T11:05:13.452Z,53.41
2023-03-28T11:07:44.947Z,53.52
2023-03-28T11:10:18.623Z,53.56
2023-03-28T11:12:57.858Z,53.69
2023-03-28T11:15:30.805Z,53.52
2023-03-28T11:18:06.713Z,53.55
2023-03-28T11:20:46.997Z,54.10
2023-03-28T11:23:28.077Z,54.29
2023-03-28T11:25:58.071Z,53.79
2023-03-28T11:28:32.272Z,53.44
2023-03-28T11:31:03.953Z,51.91
2023-03-28T11:33:35.645Z,52.80
2023-03-28T11:36:07.754Z,53.67
2023-03-28T11:38:38.648Z,53.92
2023-03-28T11:41:10.572Z,53.65
2023-03-28T11:43:44.860Z,53.82
2023-03-28T11:46:15.343Z,53.90
2023-03-28T11:48:49.122Z,53.87
2023-03-28T11:51:21.571Z,53.37
2023-03-28T11:53:52.449Z,53.22
2023-03-28T11:56:30.810Z,53.12
2023-03-28T11:59:02.193Z,53.13
2023-03-28T12:01:33.652Z,53.23
2023-03-28T12:04:05.856Z,53.19
2023-03-28T12:06:36.043Z,53.09
2023-03-28T12:09:10.615Z,53.54
2023-03-28T12:11:40.722Z,53.26
2023-03-28T12:14:23.251Z,53.30
2023-03-28T12:16:54.659Z,52.90
2023-03-28T12:19:29.869Z,52.53
2023-03-28T12:22:00.327Z,52.64
2023-03-28T12:24:33.731Z,52.95
2023-03-28T12:27:08.760Z,53.00
2023-03-28T12:29:40.667Z,52.47
2023-03-28T12:32:19.083Z,52.04
2023-03-28T12:34:51.303Z,52.37
2023-03-28T12:37:23.595Z,52.59
2023-03-28T12:39:55.024Z,52.81
2023-03-28T12:42:24.864Z,52.93
2023-03-28T12:44:55.770Z,52.60
2023-03-28T12:47:26.739Z,52.55
2023-03-28T12:49:56.729Z,52.44
2023-03-28T12:52:27.603Z,51.56
2023-03-28T12:55:01.071Z,51.27
2023-03-28T12:57:43.528Z,51.12
2023-03-28T13:00:17.509Z,52.05
2023-03-28T13:02:47.872Z,52.16
2023-03-28T13:05:21.217Z,51.16
2023-03-28T13:07:59.105Z,50.84
2023-03-28T13:10:29.919Z,51.24
2023-03-28T13:13:06.800Z,51.56
2023-03-28T13:15:48.549Z,51.84
2023-03-28T13:18:30.957Z,51.76
2023-03-28T13:21:01.443Z,51.39
2023-03-28T13:23:31.486Z,51.29
2023-03-28T13:26:02.288Z,51.41
2023-03-28T13:28:32.476Z,51.64
2023-03-28T13:31:11.294Z,50.60
2023-03-28T13:33:46.798Z,49.86
2023-03-28T13:36:19.955Z,49.69
2023-03-28T13:38:50.326Z,49.28
2023-03-28T13:41:36.092Z,49.85
2023-03-28T13:44:06.496Z,49.93
2023-03-28T13:46:36.483Z,50.26
2023-03-28T13:49:07.420Z,50.81
2023-03-28T13:51:39.938Z,50.84
2023-03-28T13:54:09.668Z,50.91
2023-03-28T13:56:40.350Z,50.61
2023-03-28T13:59:13.387Z,50.43
2023-03-28T14:01:46.824Z,50.40
2023-03-28T14:04:18.967Z,50.32
2023-03-28T14:06:48.415Z,50.08
2023-03-28T14:09:20.595Z,49.65
2023-03-28T14:11:50.339Z,49.09
2023-03-28T14:14:27.545Z,49.06
2023-03-28T14:16:59.251Z,49.57
2023-03-28T14:19:33.767Z,50.08
2023-03-28T14:22:02.311Z,49.86
2023-03-28T14:24:30.711Z,49.76
2023-03-28T14:27:07.043Z,49.58
2023-03-28T14:29:35.512Z,49.75
2023-03-28T14:32:08.093Z,49.85
2023-03-28T14:34:39.613Z,49.95
2023-03-28T14:37:17.262Z,50.21
2023-03-28T14:39:46.841Z,49.80
2023-03-28T14:42:16.072Z,49.81
2023-03-28T14:44:45.629Z,49.90
2023-03-28T14:47:17.068Z,50.08
2023-03-28T14:50:07.177Z,50.36
2023-03-28T14:52:40.296Z,50.11
2023-03-28T14:55:14.882Z,49.64
2023-03-28T14:57:44.686Z,49.47
2023-03-28T15:00:15.013Z,49.15
2023-03-28T15:02:45.035Z,49.17
2023-03-28T15:05:16.853Z,49.24
2023-03-28T15:07:46.148Z,49.26
2023-03-28T15:10:22.953Z,49.68
2023-03-28T15:12:56.936Z,49.77
2023-03-28T15:15:29.340Z,48.89
2023-03-28T15:18:00.264Z,49.74
2023-03-28T15:20:31.436Z,49.93
2023-03-28T15:23:03.521Z,49.83
2023-03-28T15:25:32.244Z,49.74
2023-03-28T15:28:15.960Z,48.11
2023-03-28T15:30:45.466Z,48.73
2023-03-28T15:33:17.103Z,49.41
2023-03-28T15:35:46.414Z,50.07
2023-03-28T15:38:20.576Z,50.51
2023-03-28T15:40:50.405Z,50.79
2023-03-28T15:43:37.196Z,50.73
2023-03-28T15:46:11.352Z,50.75
2023-03-28T15:48:40.877Z,50.82
2023-03-28T15:51:13.057Z,50.76
2023-03-28T15:53:43.564Z,50.75
2023-03-28T15:56:14.183Z,50.75
2023-03-28T15:58:45.135Z,50.86
2023-03-28T16:01:25.107Z,51.05
2023-03-28T16:04:15.198Z,51.16
2023-03-28T16:06:44.536Z,51.14
2023-03-28T16:09:15.564Z,51.32
2023-03-28T16:11:45.417Z,51.44
2023-03-28T16:14:18.390Z,51.39
2023-03-28T16:16:47.606Z,51.40
2023-03-28T16:19:18.823Z,51.49
2023-03-28T16:21:47.596Z,51.70
2023-03-28T16:24:16.529Z,51.64
2023-03-28T16:26:44.876Z,51.60
2023-03-28T16:29:13.244Z,51.85
2023-03-28T16:31:42.779Z,51.87
2023-03-28T16:34:11.116Z,51.63
2023-03-28T16:36:39.595Z,51.70
2023-03-28T16:39:08.585Z,51.89
2023-03-28T16:41:37.272Z,51.83
2023-03-28T16:44:05.656Z,51.84
2023-03-28T16:46:35.590Z,52.08
2023-03-28T16:49:05.897Z,52.13
2023-03-28T16:51:34.837Z,52.42
2023-03-28T16:54:06.171Z,52.84
2023-03-28T16:56:34.933Z,53.08
2023-03-28T16:59:05.364Z,53.89
2023-03-28T17:01:39.624Z,54.15
2023-03-28T17:04:08.487Z,54.22
2023-03-28T17:06:36.871Z,54.45
2023-03-28T17:09:06.986Z,54.45
2023-03-28T17:11:35.890Z,54.40
2023-03-28T17:14:05.129Z,54.73
2023-03-28T17:16:35.672Z,54.66
2023-03-28T17:19:06.240Z,54.64
2023-03-28T17:21:37.124Z,55.10
2023-03-28T17:24:10.587Z,54.65
2023-03-28T17:26:47.114Z,54.33
2023-03-28T17:29:16.112Z,54.31
2023-03-28T17:31:45.423Z,54.34
2023-03-28T17:34:14.448Z,54.14
2023-03-28T17:36:43.692Z,54.05
2023-03-28T17:39:12.581Z,54.11
2023-03-28T17:41:41.403Z,54.13
2023-03-28T17:44:10.062Z,54.01
2023-03-28T17:46:38.618Z,53.94
2023-03-28T17:49:07.985Z,54.05
2023-03-28T17:51:36.591Z,53.86
2023-03-28T17:54:07.861Z,53.61
2023-03-28T17:56:36.510Z,53.93
2023-03-28T17:59:07.494Z,53.94
2023-03-28T18:01:42.946Z,53.70
2023-03-28T18:04:11.933Z,53.61
2023-03-28T18:06:40.865Z,54.06
2023-03-28T18:09:10.050Z,54.02
2023-03-28T18:11:38.849Z,54.13
2023-03-28T18:14:08.274Z,54.15
2023-03-28T18:16:38.181Z,54.32
2023-03-28T18:19:08.580Z,54.27
2023-03-28T18:21:37.625Z,54.21
2023-03-28T18:24:07.596Z,54.10
2023-03-28T18:26:38.636Z,53.86
2023-03-28T18:29:08.022Z,53.76
2023-03-28T18:31:51.139Z,54.18
2023-03-28T18:34:20.224Z,54.17
2023-03-28T18:36:49.002Z,53.98
2023-03-28T18:39:17.750Z,53.76
2023-03-28T18:41:46.379Z,53.75
2023-03-28T18:44:15.296Z,53.86
2023-03-28T18:46:43.984Z,54.05
2023-03-28T18:49:14.002Z,54.17
2023-03-28T18:51:45.563Z,54.16
2023-03-28T18:54:14.706Z,54.32
2023-03-28T18:56:44.082Z,54.43
2023-03-28T18:59:13.392Z,54.51
2023-03-28T19:01:51.690Z,54.63
2023-03-28T19:04:22.513Z,54.72
2023-03-28T19:06:52.162Z,54.91
2023-03-28T19:09:20.664Z,55.32
2023-03-28T19:11:50.659Z,55.87
2023-03-28T19:14:19.240Z,55.61
2023-03-28T19:16:48.005Z,55.91
2023-03-28T19:19:16.729Z,55.92
2023-03-28T19:21:45.374Z,55.78
2023-03-28T19:24:14.129Z,55.70
2023-03-28T19:26:42.816Z,55.32
2023-03-28T19:29:11.262Z,55.23
2023-03-28T19:31:40.288Z,55.40
2023-03-28T19:34:15.171Z,55.28
2023-03-28T19:36:45.594Z,55.48
2023-03-28T19:39:14.918Z,55.78
2023-03-28T19:41:43.748Z,55.61
2023-03-28T19:44:12.868Z,55.51
2023-03-28T19:46:41.632Z,55.68
2023-03-28T19:49:10.922Z,55.58
2023-03-28T19:51:40.170Z,55.38
2023-03-28T19:54:08.856Z,55.36
2023-03-28T19:56:37.458Z,55.49
2023-03-28T19:59:05.964Z,55.93
2023-03-28T20:01:35.179Z,56.32
2023-03-28T20:04:05.030Z,57.30
2023-03-28T20:06:35.054Z,57.85
2023-03-28T20:09:04.444Z,58.68
2023-03-28T20:11:34.659Z,59.50
2023-03-28T20:14:03.059Z,61.91
2023-03-28T20:16:32.521Z,63.06
2023-03-28T20:19:00.967Z,63.61
2023-03-28T20:21:30.060Z,65.30
2023-03-28T20:24:00.044Z,65.00
2023-03-28T20:26:28.948Z,65.67
2023-03-28T20:28:59.883Z,65.35
2023-03-28T20:31:29.600Z,66.02
2023-03-28T20:33:58.965Z,65.44
2023-03-28T20:36:27.377Z,65.85
2023-03-28T20:38:55.910Z,65.93
2023-03-28T20:41:24.332Z,66.32
2023-03-28T20:43:54.341Z,67.23
2023-03-28T20:46:23.177Z,66.87
2023-03-28T20:48:54.376Z,66.51
2023-03-28T20:51:28.902Z,67.09
2023-03-28T20:54:00.275Z,67.43
2023-03-28T20:56:29.621Z,67.56
2023-03-28T20:58:58.999Z,67.60
2023-03-28T21:01:29.433Z,67.50
2023-03-28T21:03:59.292Z,67.54
2023-03-28T21:06:29.885Z,66.93
2023-03-28T21:09:00.149Z,66.86
2023-03-28T21:11:29.349Z,66.61
2023-03-28T21:13:59.247Z,66.24
2023-03-28T21:16:27.931Z,66.56
2023-03-28T21:18:56.738Z,66.56
2023-03-28T21:21:29.336Z,66.79
2023-03-28T21:23:58.005Z,66.81
2023-03-28T21:26:26.679Z,66.46
2023-03-28T21:28:55.467Z,66.53
2023-03-28T21:31:25.096Z,67.01
2023-03-28T21:33:54.838Z,67.50
2023-03-28T21:36:23.831Z,69.10
2023-03-28T21:38:52.464Z,69.17
2023-03-28T21:41:21.908Z,69.09
2023-03-28T21:43:51.359Z,68.59
2023-03-28T21:46:20.449Z,68.80
2023-03-28T21:48:49.972Z,69.40
2023-03-28T21:51:18.675Z,69.48
2023-03-28T21:53:47.502Z,69.74
2023-03-28T21:56:16.142Z,69.42
2023-03-28T21:58:44.519Z,69.26
2023-03-28T22:01:13.991Z,69.91
2023-03-28T22:03:43.855Z,69.34
2023-03-28T22:06:12.904Z,69.26
2023-03-28T22:08:42.440Z,68.71
2023-03-28T22:11:13.760Z,68.26
2023-03-28T22:13:44.495Z,68.10
2023-03-28T22:16:14.743Z,68.06
2023-03-28T22:18:49.443Z,67.82
2023-03-28T22:21:18.781Z,67.84
2023-03-28T22:23:49.825Z,68.31
2023-03-28T22:26:18.593Z,67.93
2023-03-28T22:28:48.524Z,67.83
2023-03-28T22:31:16.964Z,68.14
2023-03-28T22:33:48.022Z,67.77
2023-03-28T22:36:16.979Z,67.36
2023-03-28T22:38:45.526Z,67.05
2023-03-28T22:41:13.901Z,66.89
2023-03-28T22:43:42.450Z,66.56
2023-03-28T22:46:12.106Z,66.60
2023-03-28T22:48:41.474Z,66.61
2023-03-28T22:51:12.048Z,66.40
2023-03-28T22:53:40.392Z,66.15
2023-03-28T22:56:09.890Z,65.95
2023-03-28T22:58:39.358Z,65.59
2023-03-28T23:01:09.034Z,65.18
2023-03-28T23:03:38.489Z,65.26
2023-03-28T23:06:08.454Z,64.87
2023-03-28T23:08:38.624Z,64.31
2023-03-28T23:11:15.266Z,63.61
2023-03-28T23:13:43.994Z,63.67
2023-03-28T23:16:12.851Z,63.57
2023-03-28T23:18:42.635Z,63.26
2023-03-28T23:21:11.012Z,63.00
2023-03-28T23:23:41.202Z,62.15
2023-03-28T23:26:12.032Z,61.65
2023-03-28T23:28:41.117Z,61.93
2023-03-28T23:31:14.067Z,61.64
2023-03-28T23:33:46.413Z,61.36
2023-03-28T23:36:20.265Z,61.30
2023-03-28T23:38:49.482Z,61.82
2023-03-28T23:41:17.740Z,61.22
2023-03-28T23:43:46.392Z,60.20
2023-03-28T23:46:15.168Z,60.80
2023-03-28T23:48:43.603Z,60.98
2023-03-28T23:51:12.372Z,61.10
2023-03-28T23:53:41.574Z,61.20
2023-03-28T23:56:11.546Z,60.85
2023-03-28T23:58:40.756Z,60.05
